createdAt,value
2023-02-01T00:00:19.285Z,622.00
2023-02-01T00:01:18.986Z,622.00
2023-02-01T00:02:19.014Z,618.00
2023-02-01T00:03:18.973Z,616.00
2023-02-01T00:55:30.154Z,500.00
2023-02-01T00:56:31.061Z,500.00
2023-02-01T00:57:31.037Z,500.00
2023-02-01T00:58:31.039Z,500.00
2023-02-01T00:59:31.040Z,500.00
2023-02-01T01:00:31.020Z,500.00
2023-02-01T01:01:31.099Z,445.00
2023-02-01T01:02:30.987Z,416.00
2023-02-01T01:03:30.984Z,412.00
2023-02-01T01:04:30.968Z,419.00
2023-02-01T01:05:30.971Z,429.00
2023-02-01T01:06:30.992Z,454.00
2023-02-01T01:07:30.946Z,478.00
2023-02-01T01:08:30.932Z,499.00
2023-02-01T01:09:30.927Z,500.00
2023-02-01T01:10:30.924Z,500.00
2023-02-01T01:11:30.943Z,500.00
2023-02-01T01:12:30.901Z,501.00
2023-02-01T01:13:30.898Z,504.00
2023-02-01T01:14:30.881Z,500.00
2023-02-01T01:15:30.887Z,500.00
2023-02-01T01:16:30.947Z,500.00
2023-02-01T01:17:30.869Z,500.00
2023-02-01T01:18:30.854Z,500.00
2023-02-01T01:19:30.843Z,502.00
2023-02-01T01:20:30.831Z,500.00
2023-02-01T01:21:30.856Z,507.00
2023-02-01T01:22:30.858Z,500.00
2023-02-01T01:23:30.802Z,502.00
2023-02-01T01:24:30.802Z,505.00
2023-02-01T01:25:30.812Z,499.00
2023-02-01T01:26:31.014Z,505.00
2023-02-01T01:27:30.807Z,500.00
2023-02-01T01:28:30.772Z,502.00
2023-02-01T01:29:30.763Z,507.00
2023-02-01T01:30:30.757Z,501.00
2023-02-01T01:31:30.807Z,502.00
2023-02-01T01:32:30.725Z,503.00
2023-02-01T01:33:30.728Z,502.00
2023-02-01T01:34:30.713Z,501.00
2023-02-01T01:35:30.701Z,503.00
2023-02-01T01:36:30.688Z,501.00
2023-02-01T01:37:30.678Z,500.00
2023-02-01T01:38:30.673Z,509.00
2023-02-01T01:39:30.677Z,500.00
2023-02-01T01:40:30.660Z,502.00
2023-02-01T01:41:30.643Z,502.00
2023-02-01T01:42:30.637Z,503.00
2023-02-01T01:43:30.649Z,503.00
2023-02-01T01:44:30.620Z,503.00
2023-02-01T01:45:30.618Z,506.00
2023-02-01T01:46:30.780Z,501.00
2023-02-01T01:47:30.595Z,504.00
2023-02-01T01:48:30.585Z,505.00
2023-02-01T01:49:30.577Z,499.00
2023-02-01T01:50:30.573Z,502.00
2023-02-01T01:51:30.570Z,504.00
2023-02-01T01:52:30.544Z,500.00
2023-02-01T01:53:30.537Z,508.00
2023-02-01T01:54:30.534Z,507.00
2023-02-01T01:55:30.531Z,504.00
2023-02-01T01:56:30.515Z,504.00
2023-02-01T01:57:30.506Z,507.00
2023-02-01T01:58:30.500Z,506.00
2023-02-01T01:59:30.596Z,503.00
2023-02-01T02:00:30.521Z,509.00
2023-02-01T02:01:30.473Z,500.00
2023-02-01T02:02:30.465Z,503.00
2023-02-01T02:03:30.453Z,503.00
2023-02-01T02:04:30.447Z,504.00
2023-02-01T02:05:30.441Z,506.00
2023-02-01T02:06:30.426Z,505.00
2023-02-01T02:07:30.414Z,504.00
2023-02-01T02:08:30.404Z,505.00
2023-02-01T02:09:30.396Z,501.00
2023-02-01T02:10:30.389Z,508.00
2023-02-01T02:11:30.378Z,506.00
2023-02-01T02:12:30.388Z,504.00
2023-02-01T02:13:30.362Z,505.00
2023-02-01T02:14:30.350Z,505.00
2023-02-01T02:15:30.375Z,502.00
2023-02-01T02:16:30.401Z,504.00
2023-02-01T02:17:30.346Z,508.00
2023-02-01T02:18:30.329Z,502.00
2023-02-01T02:19:30.317Z,507.00
2023-02-01T02:20:30.301Z,504.00
2023-02-01T02:21:30.289Z,507.00
2023-02-01T02:22:30.279Z,505.00
2023-02-01T02:23:30.286Z,506.00
2023-02-01T02:24:30.277Z,509.00
2023-02-01T02:25:30.259Z,505.00
2023-02-01T02:26:30.318Z,507.00
2023-02-01T02:27:30.244Z,505.00
2023-02-01T02:28:30.229Z,505.00
2023-02-01T02:29:30.227Z,504.00
2023-02-01T02:30:30.258Z,506.00
2023-02-01T02:31:30.266Z,508.00
2023-02-01T02:32:30.201Z,506.00
2023-02-01T02:33:30.194Z,508.00
2023-02-01T02:34:30.183Z,506.00
2023-02-01T02:35:30.161Z,506.00
2023-02-01T02:36:30.151Z,507.00
2023-02-01T02:37:30.149Z,506.00
2023-02-01T02:38:30.139Z,506.00
2023-02-01T02:39:30.135Z,508.00
2023-02-01T02:40:30.124Z,502.00
2023-02-01T02:41:30.111Z,505.00
2023-02-01T02:42:30.103Z,504.00
2023-02-01T02:43:30.107Z,507.00
2023-02-01T02:44:30.084Z,502.00
2023-02-01T02:45:30.165Z,502.00
2023-02-01T02:46:30.091Z,508.00
2023-02-01T02:47:30.094Z,500.00
2023-02-01T02:48:30.055Z,510.00
2023-02-01T02:49:30.056Z,508.00
2023-02-01T02:50:30.044Z,504.00
2023-02-01T02:51:30.023Z,508.00
2023-02-01T02:52:30.018Z,507.00
2023-02-01T02:53:30.161Z,505.00
2023-02-01T02:54:30.008Z,504.00
2023-02-01T02:55:29.995Z,507.00
2023-02-01T02:56:29.993Z,506.00
2023-02-01T02:57:29.971Z,508.00
2023-02-01T02:58:29.970Z,502.00
2023-02-01T02:59:29.949Z,504.00
2023-02-01T03:00:29.946Z,504.00
2023-02-01T03:01:29.941Z,508.00
2023-02-01T03:02:30.053Z,504.00
2023-02-01T03:03:29.961Z,507.00
2023-02-01T03:04:29.926Z,510.00
2023-02-01T03:05:29.904Z,507.00
2023-02-01T03:06:29.900Z,511.00
2023-02-01T03:07:29.886Z,510.00
2023-02-01T03:08:29.878Z,506.00
2023-02-01T03:09:29.865Z,514.00
2023-02-01T03:10:29.867Z,510.00
2023-02-01T03:11:29.851Z,508.00
2023-02-01T03:12:29.849Z,503.00
2023-02-01T03:13:29.841Z,506.00
2023-02-01T03:14:29.821Z,505.00
2023-02-01T03:15:29.845Z,506.00
2023-02-01T03:16:29.872Z,508.00
2023-02-01T03:17:29.805Z,509.00
2023-02-01T03:18:29.786Z,503.00
2023-02-01T03:19:29.816Z,508.00
2023-02-01T03:20:29.766Z,504.00
2023-02-01T03:21:29.757Z,511.00
2023-02-01T03:22:29.750Z,514.00
2023-02-01T03:23:29.750Z,509.00
2023-02-01T03:24:29.737Z,508.00
2023-02-01T03:25:30.664Z,511.00
2023-02-01T03:26:29.771Z,508.00
2023-02-01T03:27:29.703Z,507.00
2023-02-01T03:28:29.693Z,514.00
2023-02-01T03:29:29.695Z,510.00
2023-02-01T03:30:29.679Z,511.00
2023-02-01T03:31:29.749Z,510.00
2023-02-01T03:32:29.668Z,508.00
2023-02-01T03:33:29.654Z,510.00
2023-02-01T03:34:29.652Z,513.00
2023-02-01T03:35:29.658Z,508.00
2023-02-01T03:36:29.629Z,513.00
2023-02-01T03:37:29.648Z,511.00
2023-02-01T03:38:29.606Z,511.00
2023-02-01T03:39:29.623Z,510.00
2023-02-01T03:40:29.592Z,508.00
2023-02-01T03:41:29.578Z,509.00
2023-02-01T03:42:29.606Z,505.00
2023-02-01T03:43:29.564Z,509.00
2023-02-01T03:44:29.554Z,510.00
2023-02-01T03:45:29.554Z,512.00
2023-02-01T03:46:29.538Z,508.00
2023-02-01T03:47:29.577Z,511.00
2023-02-01T03:48:29.518Z,504.00
2023-02-01T03:49:29.516Z,508.00
2023-02-01T03:50:29.504Z,508.00
2023-02-01T03:51:29.523Z,505.00
2023-02-01T03:52:29.485Z,509.00
2023-02-01T03:53:29.476Z,511.00
2023-02-01T03:54:29.463Z,514.00
2023-02-01T03:55:29.464Z,506.00
2023-02-01T03:56:29.475Z,508.00
2023-02-01T03:57:29.439Z,508.00
2023-02-01T03:58:29.434Z,501.00
2023-02-01T03:59:29.426Z,511.00
2023-02-01T04:00:29.420Z,503.00
2023-02-01T04:01:29.504Z,508.00
2023-02-01T04:02:29.466Z,503.00
2023-02-01T04:03:29.394Z,509.00
2023-02-01T04:04:29.377Z,508.00
2023-02-01T04:05:29.373Z,506.00
2023-02-01T04:06:29.359Z,508.00
2023-02-01T04:07:29.384Z,509.00
2023-02-01T04:08:29.351Z,509.00
2023-02-01T04:09:29.676Z,513.00
2023-02-01T04:10:29.326Z,504.00
2023-02-01T04:11:29.311Z,507.00
2023-02-01T04:12:29.308Z,506.00
2023-02-01T04:13:29.301Z,507.00
2023-02-01T04:14:29.292Z,509.00
2023-02-01T04:15:29.284Z,502.00
2023-02-01T04:16:29.293Z,507.00
2023-02-01T04:17:30.170Z,509.00
2023-02-01T04:18:29.267Z,510.00
2023-02-01T04:19:29.253Z,507.00
2023-02-01T04:20:29.236Z,505.00
2023-02-01T04:21:29.230Z,511.00
2023-02-01T04:22:29.219Z,507.00
2023-02-01T04:23:29.247Z,504.00
2023-02-01T04:24:29.234Z,508.00
2023-02-01T04:25:29.199Z,507.00
2023-02-01T04:26:29.222Z,512.00
2023-02-01T04:27:29.173Z,507.00
2023-02-01T04:28:29.164Z,506.00
2023-02-01T04:29:29.166Z,507.00
2023-02-01T04:30:29.179Z,506.00
2023-02-01T04:31:29.239Z,505.00
2023-02-01T04:32:29.133Z,506.00
2023-02-01T04:33:29.139Z,504.00
2023-02-01T04:34:29.116Z,506.00
2023-02-01T04:35:29.114Z,511.00
2023-02-01T04:36:29.094Z,507.00
2023-02-01T04:37:29.085Z,507.00
2023-02-01T04:38:29.073Z,511.00
2023-02-01T04:39:29.084Z,507.00
2023-02-01T04:40:29.071Z,503.00
2023-02-01T04:41:29.052Z,507.00
2023-02-01T04:42:29.040Z,506.00
2023-02-01T04:43:29.032Z,506.00
2023-02-01T04:44:29.031Z,508.00
2023-02-01T04:45:29.017Z,506.00
2023-02-01T04:46:29.110Z,507.00
2023-02-01T04:47:28.996Z,511.00
2023-02-01T04:48:28.983Z,504.00
2023-02-01T04:49:28.976Z,505.00
2023-02-01T04:50:28.997Z,505.00
2023-02-01T04:51:28.961Z,508.00
2023-02-01T04:52:28.949Z,505.00
2023-02-01T04:53:28.950Z,504.00
2023-02-01T04:54:28.943Z,509.00
2023-02-01T04:55:29.005Z,508.00
2023-02-01T04:56:28.910Z,505.00
2023-02-01T04:57:29.681Z,512.00
2023-02-01T04:58:28.894Z,507.00
2023-02-01T04:59:28.914Z,510.00
2023-02-01T05:00:28.902Z,508.00
2023-02-01T05:01:28.976Z,506.00
2023-02-01T05:02:28.859Z,508.00
2023-02-01T05:03:28.850Z,510.00
2023-02-01T05:04:28.854Z,506.00
2023-02-01T05:05:28.827Z,510.00
2023-02-01T05:06:28.847Z,509.00
2023-02-01T05:07:28.819Z,508.00
2023-02-01T05:08:28.807Z,507.00
2023-02-01T05:09:28.790Z,513.00
2023-02-01T05:10:28.784Z,515.00
2023-02-01T05:11:28.817Z,505.00
2023-02-01T05:12:28.766Z,512.00
2023-02-01T05:13:28.761Z,506.00
2023-02-01T05:14:28.748Z,514.00
2023-02-01T05:15:28.792Z,509.00
2023-02-01T05:16:28.729Z,507.00
2023-02-01T05:17:28.730Z,509.00
2023-02-01T05:18:28.711Z,510.00
2023-02-01T05:19:28.714Z,509.00
2023-02-01T05:20:28.701Z,507.00
2023-02-01T05:21:28.711Z,510.00
2023-02-01T05:22:28.674Z,508.00
2023-02-01T05:23:28.673Z,506.00
2023-02-01T05:24:28.660Z,507.00
2023-02-01T05:25:28.657Z,511.00
2023-02-01T05:26:28.705Z,509.00
2023-02-01T05:27:28.668Z,507.00
2023-02-01T05:28:28.626Z,506.00
2023-02-01T05:29:28.628Z,511.00
2023-02-01T05:30:28.612Z,512.00
2023-02-01T05:31:28.735Z,506.00
2023-02-01T05:32:28.673Z,509.00
2023-02-01T05:33:28.613Z,503.00
2023-02-01T05:34:28.567Z,508.00
2023-02-01T05:35:28.573Z,515.00
2023-02-01T05:36:28.553Z,511.00
2023-02-01T05:37:28.545Z,506.00
2023-02-01T05:38:28.560Z,506.00
2023-02-01T05:39:28.518Z,509.00
2023-02-01T05:40:28.533Z,506.00
2023-02-01T05:41:28.524Z,506.00
2023-02-01T05:42:28.496Z,507.00
2023-02-01T05:43:28.520Z,510.00
2023-02-01T05:44:28.478Z,501.00
2023-02-01T05:45:28.470Z,510.00
2023-02-01T05:46:28.610Z,506.00
2023-02-01T05:47:28.464Z,506.00
2023-02-01T05:48:28.441Z,506.00
2023-02-01T05:49:28.519Z,508.00
2023-02-01T05:50:28.427Z,508.00
2023-02-01T05:51:28.416Z,507.00
2023-02-01T05:52:28.412Z,510.00
2023-02-01T05:53:28.397Z,501.00
2023-02-01T05:54:28.389Z,509.00
2023-02-01T05:55:28.378Z,511.00
2023-02-01T05:56:28.380Z,507.00
2023-02-01T05:57:28.363Z,509.00
2023-02-01T05:59:28.392Z,511.00
2023-02-01T06:00:28.437Z,504.00
2023-02-01T06:01:28.332Z,503.00
2023-02-01T06:02:28.327Z,508.00
2023-02-01T06:03:28.353Z,508.00
2023-02-01T06:04:28.302Z,510.00
2023-02-01T06:05:28.290Z,502.00
2023-02-01T06:06:28.714Z,507.00
2023-02-01T06:07:29.761Z,507.00
2023-02-01T06:08:28.385Z,509.00
2023-02-01T06:09:28.392Z,504.00
2023-02-01T06:10:28.365Z,504.00
2023-02-01T06:11:32.752Z,505.00
2023-02-01T06:12:28.347Z,505.00
2023-02-01T06:13:28.340Z,507.00
2023-02-01T06:14:28.331Z,507.00
2023-02-01T06:15:28.345Z,508.00
2023-02-01T06:16:28.369Z,510.00
2023-02-01T06:17:28.717Z,510.00
2023-02-01T06:18:28.784Z,511.00
2023-02-01T06:19:28.292Z,513.00
2023-02-01T06:20:28.285Z,516.00
2023-02-01T06:21:28.267Z,517.00
2023-02-01T06:22:28.259Z,524.00
2023-02-01T06:23:28.274Z,524.00
2023-02-01T06:24:28.241Z,523.00
2023-02-01T06:25:28.238Z,530.00
2023-02-01T06:26:28.245Z,531.00
2023-02-01T06:27:28.216Z,539.00
2023-02-01T06:28:28.203Z,542.00
2023-02-01T06:29:28.202Z,546.00
2023-02-01T06:30:28.193Z,546.00
2023-02-01T06:31:28.338Z,558.00
2023-02-01T06:32:28.173Z,561.00
2023-02-01T06:33:28.165Z,563.00
2023-02-01T06:34:28.196Z,566.00
2023-02-01T06:35:28.224Z,579.00
2023-02-01T06:36:28.143Z,598.00
2023-02-01T06:37:28.124Z,608.00
2023-02-01T06:38:28.139Z,619.00
2023-02-01T06:39:28.110Z,637.00
2023-02-01T06:40:28.231Z,639.00
2023-02-01T06:41:29.552Z,646.00
2023-02-01T06:42:28.282Z,652.00
2023-02-01T06:43:28.292Z,647.00
2023-02-01T06:44:28.753Z,659.00
2023-02-01T06:45:28.889Z,659.00
2023-02-01T06:46:28.277Z,659.00
2023-02-01T06:47:28.716Z,663.00
2023-02-01T06:48:28.221Z,676.00
2023-02-01T06:49:28.256Z,687.00
2023-02-01T06:50:28.272Z,697.00
2023-02-01T06:51:28.188Z,705.00
2023-02-01T06:52:28.231Z,719.00
2023-02-01T06:53:28.208Z,749.00
2023-02-01T06:54:28.170Z,760.00
2023-02-01T06:55:28.157Z,751.00
2023-02-01T06:56:28.157Z,761.00
2023-02-01T06:57:28.261Z,743.00
2023-02-01T06:58:29.136Z,761.00
2023-02-01T06:59:28.149Z,792.00
2023-02-01T07:00:28.195Z,791.00
2023-02-01T07:01:28.232Z,794.00
2023-02-01T07:02:28.103Z,791.00
2023-02-01T07:03:28.124Z,790.00
2023-02-01T07:04:28.081Z,796.00
2023-02-01T07:05:28.277Z,811.00
2023-02-01T07:06:28.144Z,813.00
2023-02-01T07:07:28.207Z,813.00
2023-02-01T07:08:28.366Z,816.00
2023-02-01T07:09:28.218Z,800.00
2023-02-01T07:10:28.413Z,829.00
2023-02-01T07:11:28.234Z,815.00
2023-02-01T07:12:28.569Z,803.00
2023-02-01T07:13:28.268Z,809.00
2023-02-01T07:14:27.989Z,795.00
2023-02-01T07:15:27.987Z,814.00
2023-02-01T07:16:28.025Z,804.00
2023-02-01T07:17:27.963Z,797.00
2023-02-01T07:18:28.267Z,798.00
2023-02-01T07:19:27.978Z,809.00
2023-02-01T07:20:27.929Z,795.00
2023-02-01T07:21:27.927Z,780.00
2023-02-01T07:22:27.913Z,780.00
2023-02-01T07:23:27.909Z,787.00
2023-02-01T07:24:28.242Z,768.00
2023-02-01T07:25:27.920Z,781.00
2023-02-01T07:26:31.118Z,767.00
2023-02-01T07:27:27.866Z,768.00
2023-02-01T07:28:27.860Z,770.00
2023-02-01T07:29:28.260Z,772.00
2023-02-01T07:30:28.259Z,771.00
2023-02-01T07:31:27.844Z,751.00
2023-02-01T07:32:27.903Z,755.00
2023-02-01T07:33:28.196Z,753.00
2023-02-01T07:34:27.804Z,752.00
2023-02-01T07:35:28.274Z,766.00
2023-02-01T07:36:27.791Z,746.00
2023-02-01T07:37:27.798Z,746.00
2023-02-01T07:38:27.774Z,743.00
2023-02-01T07:39:27.767Z,738.00
2023-02-01T07:40:28.284Z,711.00
2023-02-01T07:41:27.752Z,738.00
2023-02-01T07:42:27.730Z,727.00
2023-02-01T07:43:27.779Z,711.00
2023-02-01T07:44:27.797Z,726.00
2023-02-01T07:45:28.256Z,720.00
2023-02-01T07:46:28.752Z,701.00
2023-02-01T07:47:27.696Z,710.00
2023-02-01T07:48:27.688Z,693.00
2023-02-01T07:49:27.668Z,690.00
2023-02-01T07:50:27.791Z,700.00
2023-02-01T07:51:27.704Z,695.00
2023-02-01T07:52:27.696Z,700.00
2023-02-01T07:53:27.632Z,688.00
2023-02-01T07:54:27.639Z,684.00
2023-02-01T07:55:27.754Z,675.00
2023-02-01T07:56:27.617Z,687.00
2023-02-01T07:57:28.249Z,690.00
2023-02-01T07:58:27.638Z,684.00
2023-02-01T07:59:27.585Z,686.00
2023-02-01T08:00:26.580Z,662.00
2023-02-01T08:01:27.744Z,687.00
2023-02-01T08:02:27.611Z,668.00
2023-02-01T08:03:27.564Z,669.00
2023-02-01T08:04:27.533Z,664.00
2023-02-01T08:05:27.751Z,669.00
2023-02-01T08:06:27.526Z,663.00
2023-02-01T08:07:27.537Z,669.00
2023-02-01T08:08:27.506Z,660.00
2023-02-01T08:09:27.502Z,665.00
2023-02-01T08:10:27.757Z,662.00
2023-02-01T08:11:27.472Z,664.00
2023-02-01T08:12:27.461Z,664.00
2023-02-01T08:13:27.477Z,665.00
2023-02-01T08:14:27.448Z,662.00
2023-02-01T08:15:27.435Z,663.00
2023-02-01T08:16:27.786Z,656.00
2023-02-01T08:17:27.759Z,653.00
2023-02-01T08:18:27.412Z,661.00
2023-02-01T08:19:27.406Z,656.00
2023-02-01T08:20:27.417Z,660.00
2023-02-01T08:22:27.597Z,660.00
2023-02-01T08:23:27.393Z,659.00
2023-02-01T08:24:27.356Z,659.00
2023-02-01T08:25:27.359Z,655.00
2023-02-01T08:26:27.856Z,657.00
2023-02-01T08:27:27.329Z,658.00
2023-02-01T08:28:27.766Z,655.00
2023-02-01T08:29:27.310Z,653.00
2023-02-01T08:30:27.309Z,652.00
2023-02-01T08:31:27.321Z,655.00
2023-02-01T08:32:27.292Z,652.00
2023-02-01T08:33:27.781Z,651.00
2023-02-01T08:34:27.454Z,651.00
2023-02-01T08:35:41.318Z,659.00
2023-02-01T08:36:27.259Z,659.00
2023-02-01T08:37:27.254Z,660.00
2023-02-01T08:38:27.265Z,659.00
2023-02-01T08:39:27.259Z,656.00
2023-02-01T08:40:27.213Z,657.00
2023-02-01T08:41:27.223Z,664.00
2023-02-01T08:42:27.200Z,672.00
2023-02-01T08:43:27.194Z,662.00
2023-02-01T08:44:27.208Z,698.00
2023-02-01T08:45:27.182Z,722.00
2023-02-01T08:46:27.289Z,709.00
2023-02-01T08:47:27.188Z,740.00
2023-02-01T08:48:27.489Z,764.00
2023-02-01T08:49:27.150Z,779.00
2023-02-01T08:50:27.291Z,806.00
2023-02-01T08:51:27.114Z,831.00
2023-02-01T08:52:27.112Z,853.00
2023-02-01T08:53:27.302Z,870.00
2023-02-01T08:54:28.095Z,884.00
2023-02-01T08:55:27.322Z,919.00
2023-02-01T08:56:27.216Z,925.00
2023-02-01T08:57:27.155Z,937.00
2023-02-01T08:58:27.091Z,954.00
2023-02-01T08:59:29.524Z,969.00
2023-02-01T09:00:27.309Z,970.00
2023-02-01T09:01:27.125Z,976.00
2023-02-01T09:02:27.013Z,982.00
2023-02-01T09:03:27.017Z,999.00
2023-02-01T09:04:27.275Z,1046.00
2023-02-01T09:05:28.377Z,1055.00
2023-02-01T09:06:26.981Z,1057.00
2023-02-01T09:07:26.970Z,1062.00
2023-02-01T09:08:27.275Z,1070.00
2023-02-01T09:09:26.952Z,1086.00
2023-02-01T09:10:35.018Z,1100.00
2023-02-01T09:11:26.967Z,1059.00
2023-02-01T09:12:26.927Z,1069.00
2023-02-01T09:13:26.930Z,1088.00
2023-02-01T09:14:27.157Z,1105.00
2023-02-01T09:15:26.972Z,1154.00
2023-02-01T09:16:26.901Z,1158.00
2023-02-01T09:18:25.869Z,1181.00
2023-02-01T09:19:27.621Z,1190.00
2023-02-01T09:20:27.075Z,1195.00
2023-02-01T09:21:27.307Z,1184.00
2023-02-01T09:22:26.834Z,1214.00
2023-02-01T09:23:26.833Z,1206.00
2023-02-01T09:24:26.825Z,1218.00
2023-02-01T09:25:27.377Z,1227.00
2023-02-01T09:26:32.656Z,1233.00
2023-02-01T09:27:27.315Z,1235.00
2023-02-01T09:28:26.814Z,1235.00
2023-02-01T09:29:27.288Z,1240.00
2023-02-01T09:30:26.887Z,1241.00
2023-02-01T09:31:26.866Z,1248.00
2023-02-01T09:32:26.874Z,1285.00
2023-02-01T09:33:26.753Z,1274.00
2023-02-01T09:34:26.735Z,1293.00
2023-02-01T09:35:26.787Z,1292.00
2023-02-01T09:36:26.728Z,1293.00
2023-02-01T09:37:26.711Z,1306.00
2023-02-01T09:38:26.875Z,1309.00
2023-02-01T09:39:26.789Z,1300.00
2023-02-01T09:40:27.138Z,1315.00
2023-02-01T09:41:26.675Z,1285.00
2023-02-01T09:42:26.673Z,1312.00
2023-02-01T09:43:26.680Z,1159.00
2023-02-01T09:44:30.029Z,610.00
2023-02-01T09:45:26.806Z,509.00
2023-02-01T09:46:26.774Z,458.00
2023-02-01T09:47:26.638Z,540.00
2023-02-01T09:48:26.614Z,592.00
2023-02-01T09:49:26.820Z,626.00
2023-02-01T09:50:27.026Z,673.00
2023-02-01T09:51:26.594Z,716.00
2023-02-01T09:52:26.579Z,714.00
2023-02-01T09:53:26.588Z,727.00
2023-02-01T09:55:26.932Z,754.00
2023-02-01T09:56:26.754Z,759.00
2023-02-01T09:57:26.546Z,774.00
2023-02-01T09:58:26.549Z,796.00
2023-02-01T09:59:26.840Z,828.00
2023-02-01T10:00:27.002Z,851.00
2023-02-01T10:01:26.569Z,876.00
2023-02-01T10:02:26.491Z,877.00
2023-02-01T10:03:26.557Z,904.00
2023-02-01T10:04:26.469Z,922.00
2023-02-01T10:05:26.468Z,928.00
2023-02-01T10:06:26.500Z,949.00
2023-02-01T10:07:26.827Z,971.00
2023-02-01T10:08:26.431Z,988.00
2023-02-01T10:09:26.425Z,1002.00
2023-02-01T10:10:26.969Z,1014.00
2023-02-01T10:11:26.437Z,1032.00
2023-02-01T10:12:26.436Z,1049.00
2023-02-01T10:13:26.410Z,1065.00
2023-02-01T10:14:26.381Z,1084.00
2023-02-01T10:15:26.990Z,1071.00
2023-02-01T10:16:26.941Z,1097.00
2023-02-01T10:17:26.699Z,1107.00
2023-02-01T10:18:26.366Z,1133.00
2023-02-01T10:19:26.338Z,1129.00
2023-02-01T10:20:27.368Z,1116.00
2023-02-01T10:21:26.351Z,1144.00
2023-02-01T10:22:48.346Z,1160.00
2023-02-01T10:23:34.025Z,1162.00
2023-02-01T10:24:26.486Z,1164.00
2023-02-01T10:25:26.309Z,1173.00
2023-02-01T10:26:26.328Z,1188.00
2023-02-01T10:27:26.326Z,1206.00
2023-02-01T10:28:26.807Z,1232.00
2023-02-01T10:29:26.264Z,1247.00
2023-02-01T10:30:26.513Z,1253.00
2023-02-01T10:31:26.422Z,1127.00
2023-02-01T10:32:26.233Z,1218.00
2023-02-01T10:33:26.497Z,1227.00
2023-02-01T10:34:26.227Z,1254.00
2023-02-01T10:35:26.218Z,1253.00
2023-02-01T10:36:26.192Z,1278.00
2023-02-01T10:37:26.196Z,1313.00
2023-02-01T10:38:26.320Z,1271.00
2023-02-01T10:39:26.169Z,1358.00
2023-02-01T10:40:26.711Z,1354.00
2023-02-01T10:41:26.153Z,1357.00
2023-02-01T10:42:26.169Z,1345.00
2023-02-01T10:43:26.133Z,1384.00
2023-02-01T10:44:26.127Z,1392.00
2023-02-01T10:45:26.322Z,1389.00
2023-02-01T10:46:26.330Z,1393.00
2023-02-01T10:47:26.130Z,1385.00
2023-02-01T10:48:26.104Z,1383.00
2023-02-01T10:49:26.088Z,1390.00
2023-02-01T10:50:26.124Z,1404.00
2023-02-01T10:51:26.317Z,1431.00
2023-02-01T10:52:26.057Z,1428.00
2023-02-01T10:53:26.058Z,1409.00
2023-02-01T10:54:26.335Z,1432.00
2023-02-01T10:55:26.038Z,1425.00
2023-02-01T10:56:26.023Z,1442.00
2023-02-01T10:57:26.016Z,1435.00
2023-02-01T10:58:26.818Z,1444.00
2023-02-01T10:59:26.319Z,1434.00
2023-02-01T11:00:26.337Z,1438.00
2023-02-01T11:01:26.011Z,1448.00
2023-02-01T11:02:26.095Z,1445.00
2023-02-01T11:03:26.001Z,1459.00
2023-02-01T11:04:25.990Z,1461.00
2023-02-01T11:05:26.325Z,1473.00
2023-02-01T11:06:25.943Z,1465.00
2023-02-01T11:07:25.931Z,1471.00
2023-02-01T11:08:25.932Z,1482.00
2023-02-01T11:09:26.318Z,1497.00
2023-02-01T11:10:25.918Z,1503.00
2023-02-01T11:11:25.906Z,1502.00
2023-02-01T11:12:25.895Z,1517.00
2023-02-01T11:13:25.885Z,1531.00
2023-02-01T11:14:26.342Z,1518.00
2023-02-01T11:15:26.282Z,1530.00
2023-02-01T11:16:25.901Z,1541.00
2023-02-01T11:17:25.891Z,1538.00
2023-02-01T11:18:25.848Z,1547.00
2023-02-01T11:19:26.344Z,1565.00
2023-02-01T11:20:25.822Z,1568.00
2023-02-01T11:21:25.823Z,1575.00
2023-02-01T11:22:25.816Z,1593.00
2023-02-01T11:23:25.803Z,1589.00
2023-02-01T11:24:25.828Z,1102.00
2023-02-01T11:25:26.250Z,890.00
2023-02-01T11:26:25.836Z,847.00
2023-02-01T11:27:27.772Z,764.00
2023-02-01T11:28:25.756Z,703.00
2023-02-01T11:29:25.819Z,639.00
2023-02-01T11:30:25.790Z,601.00
2023-02-01T11:31:25.944Z,548.00
2023-02-01T11:32:25.738Z,544.00
2023-02-01T11:33:25.830Z,504.00
2023-02-01T11:34:25.715Z,519.00
2023-02-01T11:35:26.012Z,506.00
2023-02-01T11:36:25.684Z,500.00
2023-02-01T11:37:25.988Z,526.00
2023-02-01T11:38:25.915Z,513.00
2023-02-01T11:39:25.664Z,500.00
2023-02-01T11:40:25.913Z,492.00
2023-02-01T11:41:25.661Z,515.00
2023-02-01T11:42:25.635Z,502.00
2023-02-01T11:43:25.851Z,516.00
2023-02-01T11:44:25.620Z,500.00
2023-02-01T11:45:25.613Z,535.00
2023-02-01T11:46:25.656Z,521.00
2023-02-01T11:47:25.613Z,500.00
2023-02-01T11:48:27.260Z,531.00
2023-02-01T11:49:25.599Z,525.00
2023-02-01T11:50:25.884Z,504.00
2023-02-01T11:51:25.855Z,517.00
2023-02-01T11:52:25.550Z,555.00
2023-02-01T11:53:25.561Z,542.00
2023-02-01T11:54:25.548Z,531.00
2023-02-01T11:55:25.536Z,539.00
2023-02-01T11:56:25.526Z,521.00
2023-02-01T11:57:25.520Z,500.00
2023-02-01T11:58:25.510Z,503.00
2023-02-01T11:59:25.490Z,497.00
2023-02-01T12:00:25.972Z,519.00
2023-02-01T12:01:25.475Z,488.00
2023-02-01T12:02:25.838Z,529.00
2023-02-01T12:03:25.492Z,518.00
2023-02-01T12:04:25.445Z,523.00
2023-02-01T12:05:25.441Z,694.00
2023-02-01T12:06:25.436Z,890.00
2023-02-01T12:07:25.445Z,1059.00
2023-02-01T12:08:25.420Z,1112.00
2023-02-01T12:09:25.406Z,1156.00
2023-02-01T12:10:25.849Z,1130.00
2023-02-01T12:11:25.835Z,1115.00
2023-02-01T12:12:25.377Z,1130.00
2023-02-01T12:13:25.365Z,1134.00
2023-02-01T12:14:25.376Z,1145.00
2023-02-01T12:15:25.350Z,1161.00
2023-02-01T12:16:25.850Z,1175.00
2023-02-01T12:17:25.350Z,1201.00
2023-02-01T12:18:25.366Z,1213.00
2023-02-01T12:19:25.325Z,1244.00
2023-02-01T12:20:25.886Z,1246.00
2023-02-01T12:21:25.402Z,1268.00
2023-02-01T12:22:25.292Z,1281.00
2023-02-01T12:23:25.309Z,1295.00
2023-02-01T12:24:25.291Z,1286.00
2023-02-01T12:25:25.585Z,1300.00
2023-02-01T12:26:25.363Z,1310.00
2023-02-01T12:27:25.248Z,1313.00
2023-02-01T12:28:25.257Z,1321.00
2023-02-01T12:29:25.251Z,1313.00
2023-02-01T12:30:25.669Z,1321.00
2023-02-01T12:31:25.346Z,1322.00
2023-02-01T12:32:25.203Z,1337.00
2023-02-01T12:33:25.195Z,1318.00
2023-02-01T12:34:25.184Z,1318.00
2023-02-01T12:35:25.166Z,1333.00
2023-02-01T12:36:25.160Z,1327.00
2023-02-01T12:37:25.183Z,1335.00
2023-02-01T12:38:25.217Z,1344.00
2023-02-01T12:39:25.160Z,1341.00
2023-02-01T12:40:25.621Z,1360.00
2023-02-01T12:41:25.112Z,1337.00
2023-02-01T12:42:25.111Z,1352.00
2023-02-01T12:43:25.095Z,1347.00
2023-02-01T12:44:25.095Z,1344.00
2023-02-01T12:45:25.090Z,1351.00
2023-02-01T12:46:25.089Z,1354.00
2023-02-01T12:47:25.077Z,1359.00
2023-02-01T12:48:25.051Z,1360.00
2023-02-01T12:49:25.045Z,1362.00
2023-02-01T12:50:25.429Z,1353.00
2023-02-01T12:51:25.021Z,1361.00
2023-02-01T12:52:25.352Z,1366.00
2023-02-01T12:53:25.006Z,1356.00
2023-02-01T12:54:25.013Z,1362.00
2023-02-01T12:55:25.013Z,1365.00
2023-02-01T12:56:24.974Z,1368.00
2023-02-01T12:57:25.375Z,1358.00
2023-02-01T12:58:24.965Z,1364.00
2023-02-01T12:59:24.965Z,1357.00
2023-02-01T13:00:25.394Z,1376.00
2023-02-01T13:01:24.992Z,1367.00
2023-02-01T13:02:25.028Z,1363.00
2023-02-01T13:03:24.918Z,1377.00
2023-02-01T13:04:24.907Z,1368.00
2023-02-01T13:05:24.911Z,1368.00
2023-02-01T13:06:24.896Z,1366.00
2023-02-01T13:07:24.885Z,1362.00
2023-02-01T13:08:25.069Z,1376.00
2023-02-01T13:09:24.861Z,1364.00
2023-02-01T13:10:25.260Z,1360.00
2023-02-01T13:11:24.878Z,1367.00
2023-02-01T13:12:24.861Z,1366.00
2023-02-01T13:13:25.353Z,1365.00
2023-02-01T13:14:24.819Z,1367.00
2023-02-01T13:15:24.808Z,1368.00
2023-02-01T13:16:24.831Z,1367.00
2023-02-01T13:17:24.793Z,1357.00